Time;durP1;ratioP1;P1;durP2;ratioP2;P2;SDS_P1;SDS_P2;PMS_P1;PMS_P2;Temp;Humidity;BMP_temperature;BMP_pressure;BME280_temperature;BME280_humidity;BME280_pressure;Samples;Min_cycle;Max_cycle;Signal;HPM_P1;HPM_P2
2022/09/25 00:00:41;;;;;;;33.95;22.13;;;;;;;10.47;95.29;100965.34;4995928;28;20046;-73
2022/09/25 00:03:07;;;;;;;31.52;22.52;;;;;;;10.15;94.96;100881.94;4998913;28;20050;-73
2022/09/25 00:05:41;;;;;;;38.17;23.33;;;;;;;10.12;93.88;100848.72;4988712;28;20054;-73
2022/09/25 00:08:08;;;;;;;33.88;21.20;;;;;;;9.99;94.61;100848.59;5006713;28;20052;-73
2022/09/25 00:10:34;;;;;;;30.35;22.40;;;;;;;10.72;95.44;100987.41;5003449;28;20057;-73
2022/09/25 00:12:59;;;;;;;29.40;21.88;;;;;;;10.50;96.47;100942.63;5007947;28;20523;-70
2022/09/25 00:15:25;;;;;;;35.15;21.83;;;;;;;9.75;96.95;100828.25;4989872;28;20038;-73
2022/09/25 00:17:51;;;;;;;47.45;23.55;;;;;;;10.51;97.08;100960.16;4988161;28;20077;-75
2022/09/25 00:20:18;;;;;;;38.22;21.52;;;;;;;9.86;96.72;100858.97;5007817;28;20042;-73
2022/09/25 00:22:44;;;;;;;35.08;23.60;;;;;;;10.13;96.80;100902.03;5007238;28;20085;-74
2022/09/25 00:25:14;;;;;;;41.70;23.13;;;;;;;9.80;95.83;100863.25;5000429;28;20812;-71
2022/09/25 00:27:40;;;;;;;35.40;23.35;;;;;;;9.63;97.10;100832.50;5005744;28;20844;-71
2022/09/25 00:30:07;;;;;;;30.63;20.98;;;;;;;10.29;97.54;100961.66;5005559;28;20053;-73
2022/09/25 00:32:33;;;;;;;40.78;23.95;;;;;;;10.39;96.67;100961.75;5004090;28;20042;-74
2022/09/25 00:34:59;;;;;;;35.75;20.45;;;;;;;10.38;95.41;100970.50;4996989;28;20057;-73
2022/09/25 00:37:27;;;;;;;44.95;22.77;;;;;;;9.64;96.42;100830.75;4986556;28;20030;-73
2022/09/25 00:39:53;;;;;;;37.70;20.70;;;;;;;9.40;95.96;100849.72;4998191;28;20473;-73
2022/09/25 00:42:20;;;;;;;27.10;19.98;;;;;;;10.09;94.63;100950.03;5007429;28;20046;-73
2022/09/25 00:45:17;;;;;;;30.85;20.63;;;;;;;10.37;92.80;100950.38;4985319;28;20113;-73
2022/09/25 00:47:59;;;;;;;30.23;21.95;;;;;;;10.26;95.06;100951.13;4980650;28;20149;-74
2022/09/25 00:50:49;;;;;;;28.95;19.38;;;;;;;9.58;93.76;100841.19;4988324;28;20043;-72
2022/09/25 00:53:23;;;;;;;29.70;20.58;;;;;;;9.39;90.89;100798.16;4996239;28;20769;-74
2022/09/25 00:55:50;;;;;;;37.63;20.38;;;;;;;10.25;89.40;100938.84;5005699;28;20037;-74
2022/09/25 00:58:20;;;;;;;27.42;18.48;;;;;;;9.34;90.15;100781.53;4996023;28;20217;-74
2022/09/25 01:00:46;;;;;;;25.75;18.90;;;;;;;9.62;88.93;100809.81;5006918;28;20395;-73
2022/09/25 01:03:12;;;;;;;28.92;19.92;;;;;;;9.62;87.56;100801.03;5004652;28;20044;-75
2022/09/25 01:05:43;;;;;;;27.17;18.98;;;;;;;10.32;87.13;100919.75;4995854;28;20308;-73
2022/09/25 01:08:13;;;;;;;25.50;18.38;;;;;;;10.50;87.10;100947.00;4989991;28;20038;-73
2022/09/25 01:10:39;;;;;;;23.95;17.48;;;;;;;10.29;87.54;100945.06;4990415;28;20068;-72
2022/09/25 01:13:05;;;;;;;23.85;18.80;;;;;;;10.32;88.49;100945.97;5006924;28;20513;-74
2022/09/25 01:15:51;;;;;;;27.13;18.25;;;;;;;10.29;88.47;100934.56;4993870;28;20081;-72
2022/09/25 01:18:34;;;;;;;26.30;18.83;;;;;;;10.32;89.20;100938.09;5005350;28;20053;-75
2022/09/25 01:21:18;;;;;;;;;;;;;;;10.21;89.70;100934.47;5007637;28;20101;-72
2022/09/25 01:24:08;;;;;;;29.40;19.17;;;;;;;10.31;89.36;100933.72;5006982;28;19925;-72
2022/09/25 01:27:25;;;;;;;27.88;19.80;;;;;;;10.22;88.79;100938.84;5010398;28;20078;-73
2022/09/25 01:30:01;;;;;;;25.73;16.88;;;;;;;10.29;87.54;100942.44;4975879;28;20080;-73
2022/09/25 01:32:33;;;;;;;28.65;18.55;;;;;;;10.08;87.92;100909.84;5005950;28;20046;-74
2022/09/25 01:35:20;;;;;;;25.35;19.25;;;;;;;10.20;88.65;100947.56;4991236;28;20117;-75
2022/09/25 01:38:08;;;;;;;23.67;17.70;;;;;;;10.17;87.54;100940.53;4991370;28;20030;-74
2022/09/25 01:40:54;;;;;;;23.65;18.25;;;;;;;10.03;88.03;100929.03;4991601;28;20494;-74
2022/09/25 01:43:30;;;;;;;24.60;16.75;;;;;;;9.90;88.88;100923.66;4991996;28;20042;-73
2022/09/25 01:46:00;;;;;;;32.95;19.25;;;;;;;9.14;88.03;100778.72;4990815;28;20054;-73
2022/09/25 01:48:29;;;;;;;22.90;18.42;;;;;;;9.03;88.87;100789.03;4990893;28;20073;-73
2022/09/25 01:51:34;;;;;;;22.30;16.30;;;;;;;10.00;87.29;100932.50;4990803;28;20050;-73
2022/09/25 01:54:07;;;;;;;23.33;17.98;;;;;;;9.11;87.54;100776.94;4993779;28;20521;-73
2022/09/25 01:56:38;;;;;;;24.67;18.23;;;;;;;9.70;87.17;100870.13;5010383;28;20070;-73
2022/09/25 01:59:24;;;;;;;24.92;20.10;;;;;;;9.90;87.16;100933.25;5025157;28;20050;-73
2022/09/25 02:01:52;;;;;;;21.58;16.73;;;;;;;8.98;86.74;100794.22;5009326;28;20060;-73
2022/09/25 02:04:23;;;;;;;28.45;19.05;;;;;;;8.83;85.90;100784.44;5010013;28;20117;-74
2022/09/25 02:06:52;;;;;;;21.98;16.85;;;;;;;9.72;86.63;100936.56;5009760;28;20042;-74
2022/09/25 02:09:43;;;;;;;22.52;16.63;;;;;;;8.38;88.59;100784.63;5009964;28;20049;-71
2022/09/25 02:12:22;;;;;;;23.73;16.45;;;;;;;8.35;88.46;100790.69;5009496;28;20068;-73
2022/09/25 02:14:58;;;;;;;24.98;16.33;;;;;;;9.35;87.88;100917.75;4997658;28;20058;-74
2022/09/25 02:20:40;;;;;;;20.90;15.73;;;;;;;9.25;87.48;100942.94;4994928;28;20065;-72
2022/09/25 02:23:09;;;;;;;23.75;15.35;;;;;;;8.80;88.46;100938.78;5009794;28;20437;-71
2022/09/25 02:25:39;;;;;;;26.35;17.10;;;;;;;8.69;88.29;100914.19;4991492;28;20129;-72
2022/09/25 02:28:05;;;;;;;22.73;17.20;;;;;;;8.60;88.57;100873.06;5006753;28;20211;-74
2022/09/25 02:30:30;;;;;;;25.40;18.20;;;;;;;9.15;87.88;100958.47;5008947;28;20553;-71
2022/09/25 02:32:56;;;;;;;23.73;16.65;;;;;;;8.56;89.14;100858.16;5009457;28;20053;-73
2022/09/25 02:35:24;;;;;;;24.25;16.55;;;;;;;9.02;89.39;100939.09;4992403;28;20129;-73
2022/09/25 02:37:49;;;;;;;23.38;17.65;;;;;;;8.29;89.10;100805.41;5009399;28;20034;-72
2022/09/25 02:40:15;;;;;;;21.80;16.73;;;;;;;8.45;87.29;100807.44;5009988;28;20037;-73
2022/09/25 02:43:10;;;;;;;24.63;17.98;;;;;;;8.23;87.82;100778.31;5009158;28;20088;-73
2022/09/25 02:46:09;;;;;;;27.70;18.65;;;;;;;8.19;90.06;100781.75;5008822;28;20531;-71
2022/09/25 02:48:44;;;;;;;26.10;18.35;;;;;;;9.17;89.09;100948.91;4989833;28;20106;-73
2022/09/25 02:51:39;;;;;;;29.88;18.38;;;;;;;8.28;88.38;100812.38;4994456;28;20064;-71
2022/09/25 02:54:12;;;;;;;23.17;16.27;;;;;;;8.84;90.19;100944.94;5006437;28;20085;-72
2022/09/25 02:56:51;;;;;;;27.52;18.42;;;;;;;8.70;90.52;100912.44;5005514;28;20550;-73
2022/09/25 02:59:28;;;;;;;29.63;18.80;;;;;;;7.90;89.54;100783.00;4972267;28;20570;-72
2022/09/25 03:01:55;;;;;;;24.10;19.45;;;;;;;8.10;89.86;100781.59;4989456;28;20026;-71
2022/09/25 03:04:24;;;;;;;33.58;17.75;;;;;;;8.01;90.45;100808.47;4990299;28;20061;-73
2022/09/25 03:06:50;;;;;;;24.23;16.58;;;;;;;7.61;90.79;100752.94;4989538;28;20058;-73
2022/09/25 03:09:18;;;;;;;24.42;17.17;;;;;;;7.55;91.90;100770.22;4989211;28;20050;-72
2022/09/25 03:11:44;;;;;;;21.50;17.90;;;;;;;8.32;90.66;100836.84;5016209;28;20166;-73
2022/09/25 03:14:10;;;;;;;26.65;15.40;;;;;;;8.17;89.27;100800.84;5026800;28;20045;-72
2022/09/25 03:16:56;;;;;;;27.65;17.63;;;;;;;8.82;89.84;100973.69;5018645;28;20046;-72
2022/09/25 03:19:25;;;;;;;21.73;15.40;;;;;;;8.52;90.48;100947.91;5026729;28;20041;-74
2022/09/25 03:21:51;;;;;;;22.38;15.40;;;;;;;8.01;90.33;100860.72;5028327;28;20034;-73
2022/09/25 03:24:16;;;;;;;21.60;14.85;;;;;;;7.78;89.62;100828.09;5021951;28;20046;-72
2022/09/25 03:26:43;;;;;;;20.23;15.35;;;;;;;8.67;88.58;100921.13;5011311;28;20406;-73
2022/09/25 03:29:11;;;;;;;20.95;15.32;;;;;;;8.20;87.71;100829.69;5016498;28;20095;-72
2022/09/25 03:31:37;;;;;;;20.38;14.98;;;;;;;7.94;90.67;100779.59;5028907;28;20037;-73
2022/09/25 03:34:03;;;;;;;21.77;16.42;;;;;;;8.69;91.20;100932.50;5010844;28;20156;-73
2022/09/25 03:36:30;;;;;;;23.45;15.32;;;;;;;8.66;91.37;100937.66;5017475;28;20132;-73
2022/09/25 03:38:57;;;;;;;26.13;14.98;;;;;;;8.76;91.72;100949.19;5007062;28;20052;-73
2022/09/25 03:41:25;;;;;;;22.27;16.33;;;;;;;7.73;92.81;100778.38;5008392;28;20058;-74
2022/09/25 03:43:52;;;;;;;25.08;17.02;;;;;;;7.91;93.05;100810.88;5008251;28;20585;-73
2022/09/25 03:46:32;;;;;;;21.38;14.30;;;;;;;8.65;91.33;100954.22;5009100;28;20034;-74
2022/09/25 03:48:58;;;;;;;23.70;14.68;;;;;;;8.55;90.16;100932.28;5043478;28;20041;-72
2022/09/25 03:51:26;;;;;;;22.65;14.50;;;;;;;8.75;91.55;100957.88;5037539;28;20045;-72
2022/09/25 03:53:52;;;;;;;21.20;15.80;;;;;;;7.86;91.32;100812.53;5026734;28;20580;-72
2022/09/25 03:56:20;;;;;;;20.80;14.10;;;;;;;8.66;91.27;100953.34;5015203;28;20073;-72
2022/09/25 03:58:47;;;;;;;18.73;14.80;;;;;;;8.53;90.69;100973.22;5008149;28;20061;-71
2022/09/25 04:01:14;;;;;;;19.95;13.60;;;;;;;8.48;91.07;100964.41;4990406;28;20124;-72
2022/09/25 04:03:39;;;;;;;18.50;13.10;;;;;;;7.49;91.00;100814.47;5008026;28;20087;-72
2022/09/25 04:06:06;;;;;;;20.70;15.45;;;;;;;8.22;91.68;100946.50;5011359;28;20509;-72
2022/09/25 04:08:34;;;;;;;20.38;16.88;;;;;;;7.57;90.57;100808.56;5027490;28;20088;-71
2022/09/25 04:11:01;;;;;;;22.52;14.00;;;;;;;8.52;89.80;100942.69;5027058;28;20046;-73
2022/09/25 04:13:29;;;;;;;20.45;14.00;;;;;;;7.75;88.97;100797.56;5025172;28;20120;-73
2022/09/25 04:15:56;;;;;;;20.58;14.35;;;;;;;8.61;89.84;100971.59;5011533;28;20584;-71
2022/09/25 04:18:23;;;;;;;24.70;15.38;;;;;;;8.43;91.36;100976.53;5006421;28;20082;-71
2022/09/25 04:20:49;;;;;;;18.77;14.40;;;;;;;7.62;90.31;100808.63;5007787;28;20045;-72
2022/09/25 04:23:14;;;;;;;17.70;14.50;;;;;;;7.69;89.05;100794.84;5008395;28;20050;-70
2022/09/25 04:25:40;;;;;;;16.95;13.95;;;;;;;8.45;87.96;100915.56;5020139;28;20124;-72
2022/09/25 04:28:08;;;;;;;19.92;14.02;;;;;;;8.77;88.49;100974.47;5014984;28;20508;-72
2022/09/25 04:30:35;;;;;;;21.80;15.35;;;;;;;7.92;89.42;100821.38;5007543;28;20797;-74
2022/09/25 04:35:45;;;;;;;20.40;13.55;;;;;;;8.45;89.36;100973.09;5007230;28;20088;-74
2022/09/25 04:38:10;;;;;;;19.27;13.57;;;;;;;8.03;89.57;100886.91;5007243;28;20050;-75
2022/09/25 04:40:36;;;;;;;19.05;15.45;;;;;;;8.57;89.72;100968.91;5007986;28;20026;-75
2022/09/25 04:43:04;;;;;;;25.00;13.85;;;;;;;8.37;90.15;100950.22;5006798;28;20045;-72
2022/09/25 04:45:32;;;;;;;19.35;14.05;;;;;;;7.56;89.74;100804.19;5008485;28;20052;-74
2022/09/25 04:47:59;;;;;;;19.92;14.15;;;;;;;8.72;89.50;100970.91;5018701;28;20069;-74
2022/09/25 04:50:26;;;;;;;21.75;15.98;;;;;;;8.79;89.50;100967.53;5006910;28;20081;-73
2022/09/25 04:52:53;;;;;;;23.98;15.32;;;;;;;8.04;89.23;100858.16;5007351;28;20065;-73
2022/09/25 04:55:20;;;;;;;22.38;14.60;;;;;;;8.69;90.71;100961.28;5020937;28;20041;-73
2022/09/25 04:57:51;;;;;;;20.92;14.20;;;;;;;7.76;90.84;100794.09;5027690;28;20054;-74
2022/09/25 05:00:18;;;;;;;19.23;13.93;;;;;;;7.74;90.28;100794.91;5015716;28;20109;-73
2022/09/25 05:02:44;;;;;;;20.10;14.57;;;;;;;7.59;91.40;100809.47;5011057;28;20141;-72
2022/09/25 05:05:10;;;;;;;17.95;13.93;;;;;;;7.55;90.72;100785.88;5010903;28;20042;-72
2022/09/25 05:07:35;;;;;;;19.55;14.50;;;;;;;7.90;89.72;100841.38;5011398;28;20045;-74
2022/09/25 05:10:01;;;;;;;17.80;14.02;;;;;;;8.49;90.68;100957.44;5011859;28;20772;-75
2022/09/25 05:12:26;;;;;;;27.55;13.68;;;;;;;8.43;90.57;100964.31;5028733;28;20053;-75
2022/09/25 05:14:52;;;;;;;19.33;13.38;;;;;;;8.74;89.18;100957.00;5030172;28;20517;-72
2022/09/25 05:17:17;;;;;;;13.98;11.50;;;;;;;8.74;88.08;100963.97;5026623;28;20049;-71
2022/09/25 05:19:43;;;;;;;20.02;11.38;;;;;;;8.75;87.35;100966.59;5030363;28;20033;-71
2022/09/25 05:22:08;;;;;;;17.45;11.35;;;;;;;8.37;87.52;100901.41;5011546;28;20041;-70
2022/09/25 05:24:34;;;;;;;17.25;11.93;;;;;;;7.82;87.79;100782.88;5017645;28;20485;-74
2022/09/25 05:26:59;;;;;;;18.13;13.00;;;;;;;7.85;86.92;100797.72;5014949;28;20514;-72
2022/09/25 05:29:25;;;;;;;14.23;10.80;;;;;;;8.65;87.29;100941.16;5003434;28;20073;-72
2022/09/25 05:31:50;;;;;;;16.63;10.75;;;;;;;8.04;86.88;100829.41;5017872;28;20040;-73
2022/09/25 05:34:16;;;;;;;13.20;10.73;;;;;;;8.90;87.11;100965.97;5011001;28;20034;-71
2022/09/25 05:36:41;;;;;;;15.75;11.32;;;;;;;8.12;87.92;100812.97;5020680;28;20061;-72
2022/09/25 05:39:17;;;;;;;17.30;12.38;;;;;;;8.88;86.20;100971.19;5029971;28;20085;-73
2022/09/25 05:41:43;;;;;;;14.77;10.02;;;;;;;8.11;86.00;100806.00;5037212;28;20053;-72
2022/09/25 05:44:08;;;;;;;15.63;11.60;;;;;;;9.08;85.78;100971.50;5029905;28;20465;-71
2022/09/25 05:46:39;;;;;;;15.30;12.07;;;;;;;8.38;84.84;100811.69;5030580;28;20326;-73
2022/09/25 05:49:05;;;;;;;19.20;11.73;;;;;;;9.04;84.88;100942.63;5029940;28;20048;-73
2022/09/25 05:51:31;;;;;;;15.07;11.13;;;;;;;9.14;84.85;100917.47;5021437;28;20038;-73
2022/09/25 05:53:56;;;;;;;15.27;11.02;;;;;;;8.62;84.78;100797.25;5012944;28;20056;-76
2022/09/25 05:56:25;;;;;;;14.15;10.93;;;;;;;9.77;84.03;100945.34;5029735;28;20034;-72
2022/09/25 05:58:51;;;;;;;14.73;11.55;;;;;;;9.40;83.04;100875.91;5023955;28;20059;-73
2022/09/25 06:01:18;;;;;;;21.77;11.77;;;;;;;9.08;83.01;100816.16;5008895;28;20455;-73
2022/09/25 06:03:44;;;;;;;18.42;12.63;;;;;;;9.64;82.66;100905.00;5009832;28;20057;-72
2022/09/25 06:06:09;;;;;;;14.57;10.13;;;;;;;10.25;83.00;100967.69;4996283;28;20100;-72
2022/09/25 06:08:35;;;;;;;22.00;11.55;;;;;;;10.15;82.50;100961.47;5009648;28;20410;-73
2022/09/25 06:11:01;;;;;;;16.50;11.85;;;;;;;10.13;81.46;100954.47;5015328;28;20045;-72
2022/09/25 06:13:29;;;;;;;15.30;10.73;;;;;;;9.88;81.36;100935.88;5016474;28;20034;-73
2022/09/25 06:15:55;;;;;;;17.60;12.40;;;;;;;10.20;81.20;100960.66;5011340;28;20049;-72
2022/09/25 06:18:23;;;;;;;15.40;12.15;;;;;;;9.80;80.43;100845.78;5009219;28;20050;-73
2022/09/25 06:20:49;;;;;;;15.40;10.93;;;;;;;9.75;80.86;100810.78;5009305;28;20225;-72
2022/09/25 06:23:15;;;;;;;13.65;10.85;;;;;;;10.65;81.83;100959.38;5011830;28;20152;-73
2022/09/25 06:25:40;;;;;;;17.25;10.65;;;;;;;10.14;80.76;100856.59;5023871;28;20082;-72
2022/09/25 06:28:06;;;;;;;15.48;11.35;;;;;;;10.63;80.15;100938.38;5029571;28;20075;-74
2022/09/25 06:30:34;;;;;;;16.40;11.15;;;;;;;10.18;79.48;100876.72;5016039;28;20065;-73
2022/09/25 06:33:09;;;;;;;13.90;11.23;;;;;;;10.54;80.35;100933.91;5013756;28;20459;-76
2022/09/25 06:35:39;;;;;;;20.73;11.55;;;;;;;10.99;79.50;100969.25;5028986;28;20128;-72
2022/09/25 06:38:05;;;;;;;13.48;10.57;;;;;;;10.93;79.75;100965.72;5048872;28;20167;-74
2022/09/25 06:40:31;;;;;;;19.60;11.95;;;;;;;11.08;79.55;100957.97;5034143;28;20038;-72
2022/09/25 06:43:01;;;;;;;17.10;12.27;;;;;;;11.16;77.70;100968.50;5008819;28;20053;-74
2022/09/25 06:45:30;;;;;;;13.32;11.20;;;;;;;11.11;77.98;100960.59;5008683;28;20045;-74
2022/09/25 06:48:08;;;;;;;16.70;11.25;;;;;;;10.27;77.43;100813.84;5008574;28;20049;-73
2022/09/25 06:50:47;;;;;;;18.38;11.50;;;;;;;11.48;76.71;100973.94;5009590;28;20720;-72
2022/09/25 06:53:14;;;;;;;14.38;10.55;;;;;;;11.17;77.63;100894.97;4991073;28;20042;-74
2022/09/25 06:55:40;;;;;;;18.95;12.85;;;;;;;11.59;76.98;100979.28;4991144;28;20216;-72
2022/09/25 06:58:09;;;;;;;19.58;12.43;;;;;;;11.61;76.93;101002.06;5009804;28;20037;-73
2022/09/25 07:00:34;;;;;;;17.35;12.85;;;;;;;11.75;76.47;100974.94;5008856;28;20157;-72
2022/09/25 07:05:46;;;;;;;15.80;12.18;;;;;;;11.15;76.22;100843.31;5008676;28;20080;-71
2022/09/25 07:08:15;;;;;;;14.80;11.98;;;;;;;11.87;76.70;100964.53;5008635;28;20478;-72
2022/09/25 07:10:50;;;;;;;18.27;10.30;;;;;;;11.43;75.49;100852.19;4995193;28;20448;-73
2022/09/25 07:13:17;;;;;;;14.98;11.48;;;;;;;12.21;75.25;100977.78;5008226;28;20410;-74
2022/09/25 07:15:50;;;;;;;14.68;10.65;;;;;;;11.58;76.38;100851.34;5011178;28;20560;-72
2022/09/25 07:18:15;;;;;;;15.75;10.95;;;;;;;12.32;75.02;100972.53;5026682;28;20053;-73
2022/09/25 07:20:41;;;;;;;14.85;9.77;;;;;;;12.37;74.10;100989.22;5027247;28;20170;-73
2022/09/25 07:23:06;;;;;;;15.05;10.18;;;;;;;12.52;73.93;100983.09;5009322;28;20057;-72
2022/09/25 07:25:32;;;;;;;13.65;10.25;;;;;;;11.87;72.59;100842.63;5021529;28;20033;-73
2022/09/25 07:28:00;;;;;;;21.55;10.90;;;;;;;12.29;72.17;100877.78;5027667;28;20045;-73
2022/09/25 07:30:27;;;;;;;12.55;10.18;;;;;;;12.39;73.86;100905.88;5027940;28;20114;-74
2022/09/25 07:32:53;;;;;;;13.90;10.63;;;;;;;12.21;71.86;100831.31;5027345;28;20052;-75
2022/09/25 07:35:18;;;;;;;14.30;10.00;;;;;;;12.89;72.79;100965.53;5010837;28;20049;-73
2022/09/25 07:37:44;;;;;;;15.73;10.70;;;;;;;13.13;71.78;100974.31;5027761;28;20077;-73
2022/09/25 07:40:13;;;;;;;13.75;10.45;;;;;;;13.25;70.90;100969.91;5027840;28;20041;-72
2022/09/25 07:42:45;;;;;;;14.73;10.15;;;;;;;13.19;70.52;100956.72;5027775;28;20081;-74
2022/09/25 07:45:10;;;;;;;14.02;10.20;;;;;;;12.84;68.94;100825.09;5010512;28;20442;-75
2022/09/25 07:47:36;;;;;;;10.95;7.97;;;;;;;12.76;68.10;100797.88;5007672;28;20115;-74
2022/09/25 07:50:01;;;;;;;15.18;8.20;;;;;;;13.00;67.66;100823.28;5006266;28;20042;-72
2022/09/25 07:52:27;;;;;;;16.17;9.98;;;;;;;13.81;67.31;100964.47;5016858;28;20061;-72
2022/09/25 07:54:52;;;;;;;20.38;14.00;;;;;;;13.72;64.78;100918.81;5007978;28;20418;-74
2022/09/25 07:57:19;;;;;;;17.67;12.07;;;;;;;13.41;64.34;100833.66;5008263;28;20387;-73
2022/09/25 07:59:45;;;;;;;27.40;17.60;;;;;;;13.46;66.31;100815.19;5022227;28;20045;-73
2022/09/25 08:02:11;;;;;;;27.35;12.57;;;;;;;14.36;65.33;100943.06;5008990;28;20041;-73
2022/09/25 08:04:36;;;;;;;11.10;9.40;;;;;;;13.78;64.27;100824.69;5027975;28;20562;-72
2022/09/25 08:07:02;;;;;;;12.18;8.63;;;;;;;13.75;64.71;100816.81;5015149;28;20497;-73
2022/09/25 08:09:27;;;;;;;23.38;8.10;;;;;;;13.77;63.24;100829.09;5007386;28;20041;-73
2022/09/25 08:11:53;;;;;;;18.40;9.98;;;;;;;14.33;64.12;100898.19;4990272;28;20045;-73
2022/09/25 08:14:18;;;;;;;18.33;9.27;;;;;;;13.80;64.61;100796.56;4989645;28;20061;-73
2022/09/25 08:16:44;;;;;;;13.77;9.80;;;;;;;14.71;62.42;100936.66;4997757;28;20541;-72
2022/09/25 08:19:10;;;;;;;9.95;6.70;;;;;;;14.06;59.16;100802.50;5005750;28;20029;-72
2022/09/25 08:21:36;;;;;;;8.63;5.85;;;;;;;14.94;56.88;100939.09;5006938;28;20078;-71
2022/09/25 08:24:01;;;;;;;13.13;6.30;;;;;;;15.13;55.93;100932.72;5004152;28;20118;-73
2022/09/25 08:26:28;;;;;;;7.65;5.65;;;;;;;15.16;55.98;100930.03;4999915;28;20046;-75
2022/09/25 08:28:54;;;;;;;11.95;7.63;;;;;;;14.84;57.98;100839.66;4969806;28;20394;-74
2022/09/25 08:31:20;;;;;;;11.05;6.93;;;;;;;15.44;55.64;100891.84;4987451;28;20093;-73
2022/09/25 08:33:47;;;;;;;11.32;6.88;;;;;;;15.73;56.92;100933.81;5006078;28;20533;-73
2022/09/25 08:36:13;;;;;;;11.85;6.45;;;;;;;15.69;56.92;100927.69;5005842;28;20049;-73
2022/09/25 08:38:38;;;;;;;7.72;5.40;;;;;;;15.90;54.57;100930.97;4974602;28;20469;-72
2022/09/25 08:41:14;;;;;;;9.52;6.05;;;;;;;15.76;54.19;100905.56;4989782;28;20049;-73
2022/09/25 08:43:58;;;;;;;11.85;6.90;;;;;;;15.79;53.76;100871.09;4989972;28;20116;-75
2022/09/25 08:50:04;;;;;;;8.17;6.30;;;;;;;15.83;57.35;100776.69;4977070;28;20056;-74
2022/09/25 08:52:30;;;;;;;12.60;7.13;;;;;;;16.24;53.19;100785.69;5000558;28;20236;-74
2022/09/25 08:54:56;;;;;;;9.20;6.22;;;;;;;16.80;57.71;100912.81;4987450;28;20065;-74
2022/09/25 08:57:36;;;;;;;8.82;6.85;;;;;;;16.34;54.17;100804.94;5002876;28;20081;-75
2022/09/25 09:00:23;;;;;;;9.48;5.88;;;;;;;17.84;55.82;100907.25;4987708;28;20479;-72
2022/09/25 09:02:57;;;;;;;9.43;5.32;;;;;;;18.11;54.95;100905.75;5012645;28;20061;-73
2022/09/25 09:05:36;;;;;;;9.77;4.95;;;;;;;17.79;52.49;100885.19;5008440;28;20056;-74
2022/09/25 09:08:09;;;;;;;8.93;5.97;;;;;;;17.84;50.24;100904.59;4988833;28;20042;-73
2022/09/25 09:10:49;;;;;;;11.23;6.13;;;;;;;17.65;52.30;100788.19;4996392;28;20045;-74
2022/09/25 09:13:18;;;;;;;7.80;5.95;;;;;;;17.47;48.68;100799.22;5000927;28;20053;-75
2022/09/25 09:15:51;;;;;;;16.92;6.25;;;;;;;18.09;49.28;100883.66;4998871;28;20053;-72
2022/09/25 09:18:25;;;;;;;12.75;6.93;;;;;;;17.30;47.85;100781.91;4993067;28;20191;-70
2022/09/25 09:20:53;;;;;;;13.93;6.60;;;;;;;18.01;52.13;100776.75;5007653;28;20042;-72
2022/09/25 09:23:26;;;;;;;8.30;4.78;;;;;;;17.65;46.60;100840.38;5005526;28;20053;-74
2022/09/25 09:25:54;;;;;;;9.43;5.20;;;;;;;18.31;47.25;100858.34;4995250;28;20035;-74
2022/09/25 09:28:44;;;;;;;7.78;5.38;;;;;;;18.33;47.01;100855.63;5006472;28;20040;-74
2022/09/25 09:31:51;;;;;;;8.52;4.40;;;;;;;18.60;50.59;100848.75;5006591;28;20145;-75
2022/09/25 09:35:04;;;;;;;6.88;4.22;;;;;;;18.29;45.48;100865.47;5006975;28;20109;-74
2022/09/25 09:38:10;;;;;;;7.18;4.70;;;;;;;18.45;49.59;100852.69;4957115;28;20154;-74
2022/09/25 09:40:54;;;;;;;7.03;4.05;;;;;;;18.08;50.25;100855.38;4887044;29;20135;-73
2022/09/25 09:43:37;;;;;;;8.45;5.15;;;;;;;17.66;49.49;100717.41;4901428;29;20049;-73
2022/09/25 09:46:39;;;;;;;14.50;5.05;;;;;;;18.77;46.79;100838.56;4974636;28;20094;-73
2022/09/25 09:49:32;;;;;;;7.90;5.95;;;;;;;18.70;45.48;100839.59;4983330;28;20066;-74
2022/09/25 09:52:07;;;;;;;9.85;5.95;;;;;;;19.11;48.82;100842.94;5002369;28;20057;-73
2022/09/25 09:55:01;;;;;;;8.52;4.63;;;;;;;18.71;43.92;100813.91;5002768;28;20072;-74
2022/09/25 09:57:32;;;;;;;8.90;5.43;;;;;;;18.11;48.47;100688.84;5005305;28;20038;-74
2022/09/25 10:00:12;;;;;;;10.75;4.75;;;;;;;19.02;47.70;100727.97;5007721;28;20134;-72
2022/09/25 10:02:40;;;;;;;7.18;4.38;;;;;;;19.26;46.98;100819.47;5009187;28;20402;-73
2022/09/25 10:05:15;;;;;;;9.73;4.97;;;;;;;19.11;44.53;100781.78;5002940;28;20456;-74
2022/09/25 10:07:42;;;;;;;13.52;5.20;;;;;;;18.90;47.07;100684.00;4995666;28;20092;-72
2022/09/25 10:10:14;;;;;;;10.20;5.45;;;;;;;19.56;41.56;100809.69;5013135;28;20041;-73
2022/09/25 10:12:44;;;;;;;14.45;5.53;;;;;;;19.24;41.03;100789.38;5013159;28;20709;-75
2022/09/25 10:15:26;;;;;;;7.07;4.43;;;;;;;19.73;46.81;100802.06;5000655;28;20065;-72
2022/09/25 10:17:53;;;;;;;7.90;4.50;;;;;;;19.87;40.66;100806.09;4992395;28;20584;-76
2022/09/25 10:20:21;;;;;;;8.02;4.95;;;;;;;19.06;39.95;100689.69;4994103;28;20077;-77
2022/09/25 10:22:52;;;;;;;9.88;5.45;;;;;;;19.45;45.17;100684.06;4999451;28;20041;-75
2022/09/25 10:25:36;;;;;;;7.50;5.00;;;;;;;19.66;41.07;100678.03;4982983;28;20037;-75
2022/09/25 10:28:25;;;;;;;8.63;5.05;;;;;;;19.94;39.25;100725.94;4998804;28;20053;-74
2022/09/25 10:30:52;;;;;;;7.53;5.65;;;;;;;20.37;40.49;100756.44;4998404;28;20054;-75
2022/09/25 10:33:21;;;;;;;19.50;5.60;;;;;;;20.99;42.12;100789.78;5000293;28;20185;-75
2022/09/25 10:35:48;;;;;;;8.43;3.72;;;;;;;21.12;41.79;100800.00;4997155;28;20880;-74
2022/09/25 10:38:28;;;;;;;11.30;4.03;;;;;;;21.17;40.83;100790.91;5002467;28;20353;-74
2022/09/25 10:41:16;;;;;;;9.32;4.10;;;;;;;21.44;41.98;100780.97;5001215;28;20148;-74
2022/09/25 10:43:55;;;;;;;6.22;4.25;;;;;;;21.72;40.15;100793.25;5009854;28;20037;-76
2022/09/25 10:52:21;;;;;;;11.73;5.07;;;;;;;21.07;40.59;100667.66;4997498;28;20061;-76
2022/09/25 10:54:46;;;;;;;8.15;6.32;;;;;;;21.85;37.78;100773.13;4997091;28;20486;-76
2022/09/25 10:57:21;;;;;;;5.00;3.58;;;;;;;21.34;36.75;100654.09;4997439;28;20052;-76
2022/09/25 10:59:50;;;;;;;8.68;4.88;;;;;;;21.14;40.92;100651.38;5003695;28;20060;-75
2022/09/25 11:02:40;;;;;;;5.72;3.88;;;;;;;21.67;36.05;100773.88;5001060;28;20057;-72
2022/09/25 11:05:20;;;;;;;40.97;28.60;;;;;;;21.49;36.93;100688.25;4992332;28;20058;-73
2022/09/25 11:07:53;;;;;;;9.48;5.38;;;;;;;21.55;35.91;100732.50;4997549;28;20073;-73
2022/09/25 11:10:24;;;;;;;9.40;4.85;;;;;;;21.73;38.38;100748.69;4987211;28;20112;-73
2022/09/25 11:12:51;;;;;;;7.05;4.30;;;;;;;20.93;38.84;100592.63;4997759;28;20124;-74
2022/09/25 11:15:22;;;;;;;7.85;4.75;;;;;;;21.05;37.62;100593.94;4983516;28;20085;-74
2022/09/25 11:17:51;;;;;;;11.50;6.40;;;;;;;21.62;36.41;100661.88;4997846;28;20050;-73
2022/09/25 11:20:28;;;;;;;8.95;5.32;;;;;;;21.89;40.83;100744.47;4999196;28;20068;-73
2022/09/25 11:23:34;;;;;;;8.35;4.65;;;;;;;22.06;35.41;100736.63;4988721;28;20034;-73
2022/09/25 11:26:11;;;;;;;7.78;4.63;;;;;;;21.39;37.78;100705.50;4995766;28;20060;-72
2022/09/25 11:28:40;;;;;;;21.52;5.70;;;;;;;21.95;41.23;100736.19;4996903;28;20041;-73
2022/09/25 11:31:08;;;;;;;14.48;4.68;;;;;;;21.99;36.14;100740.50;4991268;28;20042;-75
2022/09/25 11:34:06;;;;;;;7.05;4.18;;;;;;;21.51;35.21;100637.41;5000364;28;20046;-75
2022/09/25 11:36:42;;;;;;;6.95;3.63;;;;;;;20.83;34.72;100618.75;4998520;28;20144;-76
2022/09/25 11:42:27;;;;;;;7.80;4.55;;;;;;;21.36;35.54;100638.91;5000212;28;20136;-75
2022/09/25 11:45:25;;;;;;;5.60;2.97;;;;;;;21.26;35.51;100734.50;4977336;28;20133;-74
2022/09/25 11:47:55;;;;;;;9.80;3.70;;;;;;;;;;4974373;28;20440;-75
2022/09/25 11:50:31;;;;;;;9.65;5.07;;;;;;;21.69;40.36;100719.44;4997655;28;20038;-76
2022/09/25 11:53:45;;;;;;;8.85;3.15;;;;;;;21.81;38.94;100723.41;4999523;28;20501;-74
2022/09/25 11:56:21;;;;;;;7.20;4.50;;;;;;;21.74;36.27;100705.91;4988350;28;20509;-74
2022/09/25 11:58:59;;;;;;;7.40;4.10;;;;;;;21.80;39.46;100724.38;4997914;28;20061;-77